Soldotna Airport
PASX : now visible

Airfield :











YOU CAN JOIN US ON...

 
LOGIN :

Register | Disclaimer

   EN    FR    IT 

 









Legend :    VFR   Marginal VFR   IFR   Intensive IFR   Very Intensive IFR
Visi :
Ceiling :
>= 8 km
>= 3000ft
5 to 8 km
1000 to 3000 ft
1500m to 5 km
500 to 1000 ft
800 to 1500m
200 to 500 ft
< 800m
< 200 ft
Symbols :   Thunderstorms  Fog  Heavy snow  Heavy precipitations  Wind > 20 kt






- Airport Elevation : 113 ft
- IATA code : SXQ


PASX - Soldotna

CURRENT METAR :
  • 252156Z AUTO 07004KT 10SM CLR M19/M22 A2955 RMK AO2 SLP018 T11941217 FZRANO

EXPIRED METARs :
  • 252056Z AUTO 00000KT 10SM CLR M26/M28 A2956 RMK AO2 SLP022 T12561278 58001 FZRANO
  • 251956Z AUTO 04003KT 10SM CLR M29/M31 A2957 RMK AO2 SLP025 T12891311 FZRANO

TAF N/A



MET'MAP, your aeronautical weather chart ! - Copyright ORBIFLY December 2007 - Disclaimer

ORBIFLY MET'MAP TEAM :

Programming & Development : Alexandra Zaïnal
Concept & original design : Baudouin d'Aumeries
Assistance for programming : Marc-Olivier Méhu
Technical & hardware support : Manuel Goepfert

Contact : metmap@orbifly.com




SOURCES & CREDITS :

   NOAA       Earth
Advisory